Time;durP1;ratioP1;P1;durP2;ratioP2;P2;SDS_P1;SDS_P2;PMS_P1;PMS_P2;Temp;Humidity;BMP_temperature;BMP_pressure;BME280_temperature;BME280_humidity;BME280_pressure;Samples;Min_cycle;Max_cycle;Signal;HPM_P1;HPM_P2
2023/07/15 00:01:02;;;;;;;8.55;2.70;;;;;;;20.85;57.48;100295.88;4933033;29;20035;-95
2023/07/15 00:03:28;;;;;;;7.03;2.60;;;;;;;20.77;57.87;100286.69;4919796;29;20080;-95
2023/07/15 00:05:53;;;;;;;5.43;2.63;;;;;;;20.80;57.28;100285.22;4919481;29;20020;-96
2023/07/15 00:08:19;;;;;;;4.63;2.30;;;;;;;20.80;57.52;100274.34;4920138;29;20032;-94
2023/07/15 00:10:46;;;;;;;6.30;2.73;;;;;;;20.92;56.62;100296.09;4926386;29;20008;-94
2023/07/15 00:13:16;;;;;;;5.15;2.40;;;;;;;20.87;56.41;100280.00;4937428;29;20028;-95
2023/07/15 00:15:44;;;;;;;2.60;2.08;;;;;;;20.91;57.25;100296.47;4919499;29;20111;-95
2023/07/15 00:18:09;;;;;;;3.90;2.30;;;;;;;21.00;56.66;100291.69;4919063;29;20028;-96
2023/07/15 00:20:35;;;;;;;6.87;2.90;;;;;;;20.99;56.14;100285.44;4918188;29;20539;-95
2023/07/15 00:23:02;;;;;;;6.82;2.78;;;;;;;21.01;55.75;100288.59;4938040;29;20044;-95
2023/07/15 00:25:30;;;;;;;5.25;2.30;;;;;;;20.99;55.35;100285.44;4922254;29;20028;-96
2023/07/15 00:27:56;;;;;;;9.07;2.53;;;;;;;20.91;56.21;100291.78;4922214;29;20044;-95
2023/07/15 00:30:21;;;;;;;2.30;2.00;;;;;;;20.86;55.65;100286.56;4936516;29;20091;-95
2023/07/15 00:32:48;;;;;;;4.57;2.38;;;;;;;20.89;56.47;100294.06;4919406;29;20031;-96
2023/07/15 00:35:25;;;;;;;8.10;2.40;;;;;;;20.84;56.37;100286.13;4919488;29;20039;-96
2023/07/15 00:37:51;;;;;;;4.15;2.30;;;;;;;20.78;56.37;100279.31;4918486;29;20028;-94
2023/07/15 00:40:17;;;;;;;5.60;2.30;;;;;;;20.72;56.82;100284.97;4919014;29;20038;-95
2023/07/15 00:43:20;;;;;;;5.53;2.33;;;;;;;20.74;57.00;100287.34;4918376;29;20344;-95
2023/07/15 00:46:23;;;;;;;3.88;2.40;;;;;;;20.78;56.46;100292.94;4918624;29;20396;-95
2023/07/15 00:49:03;;;;;;;3.10;2.30;;;;;;;20.70;56.80;100286.44;4917418;29;20054;-93
2023/07/15 00:51:36;;;;;;;4.28;2.55;;;;;;;20.68;56.80;100288.72;4918923;29;20040;-94
2023/07/15 00:54:03;;;;;;;2.67;2.00;;;;;;;20.69;56.56;100290.31;4917678;29;20024;-93
2023/07/15 00:56:31;;;;;;;4.45;2.40;;;;;;;20.69;57.42;100298.47;4918024;29;20563;-94
2023/07/15 00:58:58;;;;;;;4.18;2.22;;;;;;;20.65;57.13;100294.81;4916962;29;20245;-95
2023/07/15 01:01:23;;;;;;;4.20;2.30;;;;;;;20.48;57.44;100287.66;4918763;29;20579;-94
2023/07/15 01:03:49;;;;;;;4.53;2.37;;;;;;;20.49;57.47;100300.94;4917771;29;20032;-95
2023/07/15 01:06:15;;;;;;;6.95;2.30;;;;;;;20.40;58.10;100301.03;4918218;29;20112;-94
2023/07/15 01:08:40;;;;;;;5.53;2.40;;;;;;;20.42;57.41;100301.50;4918283;29;20091;-95
2023/07/15 01:11:06;;;;;;;3.92;2.47;;;;;;;20.30;58.42;100293.28;4917997;29;20032;-94
2023/07/15 01:13:33;;;;;;;4.32;2.33;;;;;;;20.29;58.47;100299.88;4916988;29;20119;-94
2023/07/15 01:15:58;;;;;;;5.87;2.00;;;;;;;20.31;58.28;100310.44;4918203;29;20054;-94
2023/07/15 01:18:23;;;;;;;7.30;2.30;;;;;;;20.23;58.60;100293.06;4921705;29;20304;-94
2023/07/15 01:20:50;;;;;;;4.40;2.20;;;;;;;20.18;59.22;100304.94;4917346;29;20028;-93
2023/07/15 01:23:16;;;;;;;4.43;2.40;;;;;;;20.12;59.88;100303.56;4917890;29;20042;-95
2023/07/15 01:25:42;;;;;;;4.95;2.17;;;;;;;20.04;59.76;100307.97;4917890;29;20115;-94
2023/07/15 01:28:07;;;;;;;7.40;2.37;;;;;;;20.01;59.50;100307.81;4918734;29;20494;-94
2023/07/15 01:30:32;;;;;;;4.60;2.30;;;;;;;19.94;60.49;100302.94;4918438;29;20099;-93
2023/07/15 01:32:58;;;;;;;5.50;2.20;;;;;;;19.91;60.98;100304.41;4918157;29;20060;-94
2023/07/15 01:35:23;;;;;;;3.77;2.33;;;;;;;19.80;60.86;100303.22;4918019;29;20069;-94
2023/07/15 01:37:48;;;;;;;7.47;2.10;;;;;;;19.74;61.59;100297.16;4918736;29;20351;-94
2023/07/15 01:40:14;;;;;;;3.30;2.10;;;;;;;19.78;61.09;100305.47;4918771;29;20035;-93
2023/07/15 01:42:40;;;;;;;3.03;2.17;;;;;;;19.70;61.63;100303.59;4922840;29;20036;-92
2023/07/15 01:45:08;;;;;;;4.50;2.20;;;;;;;19.60;61.74;100304.78;4935268;29;20044;-94
2023/07/15 01:47:34;;;;;;;6.50;2.42;;;;;;;19.43;64.06;100298.38;4919099;29;20072;-94
2023/07/15 01:49:59;;;;;;;2.97;2.00;;;;;;;19.36;63.94;100298.09;4931352;29;20016;-94
2023/07/15 01:52:25;;;;;;;10.40;2.33;;;;;;;19.22;64.93;100287.50;4925866;29;20496;-94
2023/07/15 01:54:50;;;;;;;4.72;2.22;;;;;;;19.29;64.90;100308.69;4917810;29;20020;-95
2023/07/15 01:57:16;;;;;;;3.33;2.28;;;;;;;19.16;65.11;100288.81;4935851;29;20092;-94
2023/07/15 01:59:41;;;;;;;6.50;2.20;;;;;;;19.15;66.25;100304.31;4939119;29;20031;-94
2023/07/15 02:02:07;;;;;;;5.67;2.00;;;;;;;19.13;66.58;100314.72;4939607;29;20028;-95
2023/07/15 02:04:32;;;;;;;3.33;2.00;;;;;;;18.96;66.61;100309.38;4922697;29;20038;-94
2023/07/15 02:06:58;;;;;;;4.57;2.10;;;;;;;18.97;67.61;100322.59;4918336;29;20032;-93
2023/07/15 02:09:23;;;;;;;4.37;1.90;;;;;;;18.95;66.72;100324.06;4916106;29;20116;-93
2023/07/15 02:11:49;;;;;;;2.80;2.28;;;;;;;18.90;66.99;100314.94;4916807;29;20028;-94
2023/07/15 02:14:14;;;;;;;7.43;2.43;;;;;;;18.90;67.10;100309.50;4916334;29;20028;-94
2023/07/15 02:16:40;;;;;;;3.00;2.10;;;;;;;18.95;67.87;100318.63;4917875;29;20038;-93
2023/07/15 02:19:06;;;;;;;4.88;2.17;;;;;;;18.90;66.98;100308.72;4917583;29;20040;-94
2023/07/15 02:21:31;;;;;;;4.60;2.07;;;;;;;18.81;67.20;100305.25;4916539;29;20468;-94
2023/07/15 02:23:59;;;;;;;5.10;2.03;;;;;;;18.83;67.26;100314.66;4916467;29;20284;-95
2023/07/15 02:26:24;;;;;;;4.35;2.22;;;;;;;18.74;68.09;100308.47;4920395;29;20028;-94
2023/07/15 02:28:50;;;;;;;4.57;2.13;;;;;;;18.72;69.62;100316.16;4916544;29;20540;-93
2023/07/15 02:31:15;;;;;;;5.73;2.13;;;;;;;18.64;69.23;100322.38;4917825;29;20024;-94
2023/07/15 02:33:41;;;;;;;3.03;1.90;;;;;;;18.54;70.00;100313.50;4916918;29;20472;-94
2023/07/15 02:36:06;;;;;;;3.17;2.10;;;;;;;18.51;70.03;100314.13;4917222;29;20024;-94
2023/07/15 02:38:31;;;;;;;4.10;1.90;;;;;;;18.48;70.35;100320.22;4917107;29;20416;-94
2023/07/15 02:40:57;;;;;;;3.10;2.00;;;;;;;18.53;70.25;100327.41;4917145;29;20664;-93
2023/07/15 02:43:23;;;;;;;4.67;2.20;;;;;;;18.48;70.71;100327.56;4916354;29;20495;-92
2023/07/15 02:45:51;;;;;;;2.40;1.95;;;;;;;18.39;71.99;100327.59;4917003;29;20127;-94
2023/07/15 02:48:17;;;;;;;5.32;2.20;;;;;;;18.26;73.06;100319.28;4915656;29;20078;-94
2023/07/15 02:50:42;;;;;;;5.13;1.97;;;;;;;18.20;74.67;100317.09;4916858;29;20052;-93
2023/07/15 02:53:07;;;;;;;4.72;2.10;;;;;;;18.16;74.07;100319.66;4916680;29;20032;-94
2023/07/15 02:55:33;;;;;;;3.80;2.10;;;;;;;18.03;75.13;100313.28;4916940;29;20024;-93
2023/07/15 02:57:58;;;;;;;4.27;2.10;;;;;;;18.00;76.20;100325.56;4916676;29;20025;-94
2023/07/15 03:00:24;;;;;;;3.00;1.83;;;;;;;18.00;77.05;100324.75;4915923;29;20464;-94
2023/07/15 03:02:49;;;;;;;2.50;1.90;;;;;;;17.90;77.18;100314.22;4938764;29;20044;-94
2023/07/15 03:05:18;;;;;;;4.83;1.93;;;;;;;17.91;77.06;100322.03;4918112;29;20519;-94
2023/07/15 03:07:46;;;;;;;3.55;2.10;;;;;;;17.83;77.11;100314.72;4923820;29;20017;-94
2023/07/15 03:10:12;;;;;;;5.80;1.90;;;;;;;17.79;77.90;100322.69;4930859;29;20040;-93
2023/07/15 03:12:38;;;;;;;4.93;2.00;;;;;;;17.65;78.58;100301.16;4915794;29;20032;-94
2023/07/15 03:15:06;;;;;;;6.13;1.97;;;;;;;17.71;78.16;100324.25;4915703;29;20035;-94
2023/07/15 03:17:35;;;;;;;3.72;1.73;;;;;;;17.66;79.26;100324.44;4915918;29;20032;-93
2023/07/15 03:20:20;;;;;;;4.40;2.10;;;;;;;17.58;79.67;100317.09;4915502;29;20031;-94
2023/07/15 03:22:47;;;;;;;3.08;2.10;;;;;;;17.57;80.36;100323.63;4915365;29;20448;-93
2023/07/15 03:25:14;;;;;;;6.55;2.20;;;;;;;17.50;81.34;100315.19;4917024;29;20059;-94
2023/07/15 03:27:40;;;;;;;3.72;2.10;;;;;;;17.38;81.31;100305.75;4916084;29;20040;-94
2023/07/15 03:30:07;;;;;;;4.40;2.10;;;;;;;17.46;82.08;100322.34;4916775;29;20119;-93
2023/07/15 03:32:35;;;;;;;5.60;2.20;;;;;;;17.35;83.41;100314.50;4918920;29;20075;-94
2023/07/15 03:35:00;;;;;;;4.03;2.27;;;;;;;17.26;83.45;100311.78;4918960;29;20436;-94
2023/07/15 03:37:26;;;;;;;3.80;2.17;;;;;;;17.28;82.71;100316.91;4914980;29;20300;-94
2023/07/15 03:39:52;;;;;;;3.60;2.57;;;;;;;17.23;83.47;100323.25;4915662;29;20506;-93
2023/07/15 03:42:17;;;;;;;3.80;2.35;;;;;;;17.28;83.35;100322.31;4916859;29;20057;-93
2023/07/15 03:44:43;;;;;;;4.13;2.30;;;;;;;17.16;84.58;100314.00;4917205;29;20060;-93
2023/07/15 03:47:08;;;;;;;5.60;2.20;;;;;;;17.16;85.84;100314.00;4916561;29;20362;-93
2023/07/15 03:49:33;;;;;;;3.90;2.35;;;;;;;17.11;84.93;100317.63;4916643;29;20520;-94
2023/07/15 03:51:59;;;;;;;3.70;2.20;;;;;;;17.20;85.49;100326.59;4915029;29;20032;-94
2023/07/15 03:54:24;;;;;;;5.60;2.30;;;;;;;17.13;85.54;100314.63;4916566;29;20020;-94
2023/07/15 03:56:49;;;;;;;6.07;2.17;;;;;;;17.10;86.22;100307.91;4916156;29;20429;-93
2023/07/15 03:59:15;;;;;;;4.13;2.23;;;;;;;17.09;86.88;100307.13;4916975;29;20032;-94
2023/07/15 04:01:40;;;;;;;2.87;1.80;;;;;;;17.11;85.86;100301.41;4916233;29;20031;-93
2023/07/15 04:04:08;;;;;;;6.40;2.30;;;;;;;17.22;86.95;100320.84;4916301;29;20276;-93
2023/07/15 04:06:34;;;;;;;5.32;2.28;;;;;;;17.22;86.56;100324.38;4914964;29;20032;-93
2023/07/15 04:09:00;;;;;;;3.03;1.90;;;;;;;17.15;86.21;100307.00;4916050;29;20028;-93
2023/07/15 04:11:25;;;;;;;5.80;2.03;;;;;;;17.29;86.33;100321.19;4918377;29;20387;-93
2023/07/15 04:13:51;;;;;;;3.83;2.10;;;;;;;17.30;86.27;100316.56;4919808;29;20017;-94
2023/07/15 04:16:16;;;;;;;4.07;2.20;;;;;;;17.35;86.29;100324.53;4919160;29;20044;-93
2023/07/15 04:18:42;;;;;;;3.63;2.08;;;;;;;17.31;86.26;100310.03;4919545;29;20132;-94
2023/07/15 04:21:08;;;;;;;6.80;2.20;;;;;;;17.37;86.75;100317.69;4930761;29;20051;-93
2023/07/15 04:23:33;;;;;;;4.30;1.90;;;;;;;17.42;86.24;100314.06;4927198;29;20284;-94
2023/07/15 04:25:58;;;;;;;6.20;2.13;;;;;;;17.50;86.50;100326.00;4919598;29;20023;-94
2023/07/15 04:28:24;;;;;;;4.80;2.22;;;;;;;17.47;87.56;100321.22;4934142;29;20024;-93
2023/07/15 04:30:50;;;;;;;5.97;2.20;;;;;;;17.57;85.93;100326.31;4921974;29;20032;-94
2023/07/15 04:33:16;;;;;;;4.70;2.30;;;;;;;17.54;86.33;100311.50;4920645;29;20459;-93
2023/07/15 04:35:41;;;;;;;4.80;2.47;;;;;;;17.69;86.38;100328.41;4919328;29;20380;-94
2023/07/15 04:38:07;;;;;;;2.77;2.10;;;;;;;17.72;86.34;100327.78;4931611;29;20292;-93
2023/07/15 04:40:32;;;;;;;8.33;2.13;;;;;;;17.71;87.94;100326.97;4925799;29;20499;-94
2023/07/15 04:42:58;;;;;;;2.90;2.00;;;;;;;17.74;86.17;100327.44;4920624;29;20028;-93
2023/07/15 04:45:23;;;;;;;3.97;2.13;;;;;;;17.89;86.52;100337.84;4920825;29;20028;-94
2023/07/15 04:47:48;;;;;;;3.77;1.97;;;;;;;17.92;85.87;100326.31;4920959;29;20048;-94
2023/07/15 04:50:14;;;;;;;5.67;2.20;;;;;;;17.97;85.37;100328.88;4920440;29;20094;-95
2023/07/15 04:52:39;;;;;;;4.23;2.67;;;;;;;18.06;85.71;100331.63;4920924;29;20167;-93
2023/07/15 04:55:04;;;;;;;3.20;2.40;;;;;;;18.26;87.13;100346.41;4920278;29;20362;-94
2023/07/15 04:57:30;;;;;;;4.63;2.10;;;;;;;18.35;85.57;100338.25;4937638;29;20027;-93
2023/07/15 04:59:55;;;;;;;6.35;2.38;;;;;;;18.55;85.12;100352.25;4941190;29;20135;-94
2023/07/15 05:02:21;;;;;;;4.93;2.30;;;;;;;19.24;83.47;100336.84;4942164;29;20023;-94
2023/07/15 05:04:46;;;;;;;7.47;2.20;;;;;;;20.25;77.40;100337.84;4941749;29;20016;-94
2023/07/15 05:07:12;;;;;;;5.80;2.23;;;;;;;21.30;72.94;100346.69;4941715;29;20027;-93
2023/07/15 05:09:37;;;;;;;7.82;2.20;;;;;;;21.94;68.94;100352.47;4941794;29;20055;-94
2023/07/15 05:12:02;;;;;;;3.40;2.27;;;;;;;22.44;65.15;100335.91;4942117;29;20021;-94
2023/07/15 05:14:28;;;;;;;9.90;2.40;;;;;;;23.08;61.76;100340.53;4942514;29;20142;-95
2023/07/15 05:16:53;;;;;;;3.03;2.13;;;;;;;23.54;59.97;100340.03;4941157;29;20036;-94
2023/07/15 05:19:18;;;;;;;6.22;2.20;;;;;;;23.96;56.87;100347.50;4941270;29;20008;-94
2023/07/15 05:21:44;;;;;;;6.00;2.07;;;;;;;24.45;55.50;100365.25;4938724;29;20410;-95
2023/07/15 05:24:09;;;;;;;2.30;2.10;;;;;;;24.85;54.15;100356.94;4925803;29;20107;-94
2023/07/15 05:26:34;;;;;;;2.43;2.23;;;;;;;25.28;52.88;100359.53;4918323;29;20091;-95
2023/07/15 05:29:00;;;;;;;5.47;2.13;;;;;;;25.54;50.77;100351.31;4918313;29;20051;-95
2023/07/15 05:31:25;;;;;;;3.88;2.15;;;;;;;25.50;50.92;100338.69;4917905;29;20540;-93
2023/07/15 05:33:50;;;;;;;4.37;2.00;;;;;;;25.45;49.77;100345.31;4917783;29;20036;-96
2023/07/15 05:36:16;;;;;;;6.87;2.33;;;;;;;25.24;50.30;100349.28;4918352;29;20032;-94
2023/07/15 05:38:43;;;;;;;2.60;2.17;;;;;;;25.42;50.13;100351.53;4918556;29;20055;-95
2023/07/15 05:41:10;;;;;;;5.68;2.28;;;;;;;25.73;49.83;100354.28;4929382;29;20020;-94
2023/07/15 05:43:36;;;;;;;5.25;2.17;;;;;;;25.89;49.21;100360.34;4929826;29;20036;-95
2023/07/15 05:46:01;;;;;;;8.20;2.10;;;;;;;25.73;50.29;100357.81;4919254;29;20539;-95
2023/07/15 05:48:26;;;;;;;2.70;2.30;;;;;;;25.71;48.57;100349.16;4937076;29;20028;-94
2023/07/15 05:50:52;;;;;;;3.60;2.30;;;;;;;25.82;49.38;100361.03;4940321;29;20104;-95
2023/07/15 05:53:18;;;;;;;4.17;2.30;;;;;;;25.81;49.35;100364.97;4936742;29;20052;-94
2023/07/15 05:55:44;;;;;;;3.05;2.50;;;;;;;25.82;48.27;100363.78;4936054;29;20121;-94
2023/07/15 05:58:09;;;;;;;4.37;2.10;;;;;;;25.81;48.23;100364.97;4938407;29;20028;-96
2023/07/15 06:00:39;;;;;;;5.20;2.33;;;;;;;25.83;47.85;100372.84;4939780;29;20109;-94
2023/07/15 06:03:05;;;;;;;8.83;2.73;;;;;;;25.33;48.79;100373.69;4940189;29;20012;-95
2023/07/15 06:05:30;;;;;;;6.35;2.17;;;;;;;24.73;50.16;100372.41;4941223;29;20023;-94
2023/07/15 06:07:55;;;;;;;6.10;2.47;;;;;;;24.31;52.04;100360.28;4929956;29;20109;-96
2023/07/15 06:10:21;;;;;;;6.33;2.43;;;;;;;24.46;52.48;100364.09;4940093;29;20056;-94
2023/07/15 06:12:47;;;;;;;3.80;2.50;;;;;;;24.47;52.18;100364.88;4940890;29;20032;-95
2023/07/15 06:15:12;;;;;;;3.37;2.27;;;;;;;24.25;53.16;100367.25;4941156;29;20226;-95
2023/07/15 06:17:38;;;;;;;4.90;2.10;;;;;;;23.93;56.74;100383.78;4940429;29;20008;-96
2023/07/15 06:20:05;;;;;;;8.38;2.63;;;;;;;23.93;59.28;100377.53;4940918;29;20067;-95
2023/07/15 06:22:30;;;;;;;4.88;2.15;;;;;;;24.13;58.04;100359.97;4940487;29;20024;-95
2023/07/15 06:24:56;;;;;;;6.33;2.07;;;;;;;24.45;59.21;100373.47;4940855;29;20019;-95
2023/07/15 06:27:22;;;;;;;4.03;1.73;;;;;;;24.57;59.33;100369.75;4940294;29;20073;-96
2023/07/15 06:29:48;;;;;;;4.03;2.20;;;;;;;24.64;58.98;100369.91;4940717;29;20024;-95
2023/07/15 06:32:14;;;;;;;3.70;1.60;;;;;;;24.39;59.82;100374.13;4939844;29;20016;-96
2023/07/15 06:34:39;;;;;;;4.43;2.00;;;;;;;24.31;60.30;100359.53;4939817;29;20068;-95
2023/07/15 06:37:05;;;;;;;3.83;1.90;;;;;;;24.46;60.44;100377.00;4937835;29;20052;-96
2023/07/15 06:39:32;;;;;;;2.42;1.85;;;;;;;24.63;60.24;100373.78;4933204;29;20478;-96
2023/07/15 06:41:57;;;;;;;4.57;1.93;;;;;;;24.64;59.22;100378.09;4918796;29;20028;-96
2023/07/15 06:44:24;;;;;;;6.53;1.77;;;;;;;24.72;60.12;100389.19;4918641;29;20031;-96
2023/07/15 06:46:49;;;;;;;5.00;1.90;;;;;;;24.51;60.20;100384.91;4916529;29;20044;-95
2023/07/15 06:49:15;;;;;;;4.23;2.00;;;;;;;24.40;60.48;100379.22;4919063;29;20028;-96
2023/07/15 06:51:40;;;;;;;3.67;1.70;;;;;;;24.50;60.92;100373.16;4919356;29;20107;-95
2023/07/15 06:54:05;;;;;;;3.55;2.08;;;;;;;24.74;61.14;100384.16;4918551;29;20024;-96
2023/07/15 06:56:31;;;;;;;4.00;1.80;;;;;;;24.76;61.19;100377.13;4918164;29;20032;-96
2023/07/15 06:58:56;;;;;;;3.77;2.10;;;;;;;24.67;61.27;100371.09;4918272;29;20028;-96
2023/07/15 07:01:21;;;;;;;2.27;1.60;;;;;;;24.56;60.78;100359.97;4933530;29;20028;-96
2023/07/15 07:03:47;;;;;;;5.93;2.13;;;;;;;24.53;62.26;100377.13;4926269;29;20029;-96
2023/07/15 07:06:13;;;;;;;3.72;1.77;;;;;;;24.56;61.77;100375.63;4919266;29;20043;-96
2023/07/15 07:08:38;;;;;;;6.80;1.80;;;;;;;24.35;61.76;100363.91;4939751;29;20020;-96
2023/07/15 07:11:03;;;;;;;4.27;1.80;;;;;;;24.41;60.18;100366.34;4922949;29;20292;-96
2023/07/15 07:13:29;;;;;;;4.50;2.20;;;;;;;24.29;59.80;100365.34;4932345;29;20028;-96
2023/07/15 07:15:59;;;;;;;6.07;1.70;;;;;;;24.43;59.09;100372.25;4929230;29;20587;-96
2023/07/15 07:18:25;;;;;;;3.17;2.03;;;;;;;24.50;59.15;100375.09;4920444;29;20272;-95
2023/07/15 07:20:59;;;;;;;2.05;1.70;;;;;;;24.43;59.57;100378.50;4917586;29;20400;-96
2023/07/15 07:23:24;;;;;;;4.20;1.65;;;;;;;24.35;59.32;100377.59;4919789;29;20076;-96
2023/07/15 07:25:50;;;;;;;2.35;1.92;;;;;;;24.37;60.21;100379.97;4920246;29;20032;-96
2023/07/15 07:28:16;;;;;;;6.30;2.17;;;;;;;24.27;60.47;100384.09;4918388;29;20484;-96
2023/07/15 07:30:41;;;;;;;4.95;1.63;;;;;;;24.37;61.17;100390.94;4923625;29;20032;-96
2023/07/15 07:33:06;;;;;;;8.10;2.27;;;;;;;24.32;60.46;100377.53;4920252;29;20123;-96
2023/07/15 07:35:32;;;;;;;2.53;2.07;;;;;;;24.49;61.34;100385.28;4920006;29;20392;-95
2023/07/15 07:37:57;;;;;;;7.50;1.80;;;;;;;24.73;59.86;100397.06;4921156;29;20047;-95
2023/07/15 07:40:23;;;;;;;3.57;2.00;;;;;;;24.97;58.58;100411.53;4921348;29;20368;-96
2023/07/15 07:42:48;;;;;;;4.47;2.13;;;;;;;25.08;59.35;100409.78;4923111;29;20032;-95
2023/07/15 07:45:15;;;;;;;16.83;2.43;;;;;;;25.27;59.33;100402.63;4922001;29;20059;-96
2023/07/15 07:47:40;;;;;;;2.97;2.10;;;;;;;25.50;59.87;100382.56;4928793;29;20032;-95
2023/07/15 07:50:06;;;;;;;4.53;1.70;;;;;;;25.66;58.94;100382.41;4927089;29;20028;-96
2023/07/15 07:52:31;;;;;;;5.50;2.00;;;;;;;25.63;61.12;100383.16;4930932;29;20024;-96
2023/07/15 07:55:26;;;;;;;5.73;1.80;;;;;;;25.78;59.57;100381.38;4930733;29;20027;-95
2023/07/15 07:57:51;;;;;;;7.63;1.85;;;;;;;25.76;60.13;100384.47;4933865;29;20022;-94
2023/07/15 08:00:16;;;;;;;2.23;1.70;;;;;;;25.90;59.31;100388.59;4944197;29;20017;-95
2023/07/15 08:02:42;;;;;;;5.10;1.90;;;;;;;25.98;60.79;100371.81;4943465;29;20016;-96
2023/07/15 08:05:09;;;;;;;5.20;1.90;;;;;;;26.52;58.85;100368.06;4943716;29;20039;-96
2023/07/15 08:07:36;;;;;;;3.47;2.00;;;;;;;26.68;58.11;100387.06;4943838;29;20031;-96
2023/07/15 08:10:01;;;;;;;4.13;1.50;;;;;;;26.64;57.22;100398.03;4943806;29;20083;-96
2023/07/15 08:12:27;;;;;;;3.08;1.90;;;;;;;26.60;58.78;100397.19;4944218;29;20045;-96
2023/07/15 08:14:52;;;;;;;2.10;1.60;;;;;;;26.73;58.71;100400.47;4925491;29;20033;-96
2023/07/15 08:17:19;;;;;;;2.57;1.63;;;;;;;26.91;57.65;100400.63;4943366;29;20016;-96
2023/07/15 08:20:10;;;;;;;2.97;1.67;;;;;;;27.22;57.60;100392.97;4942917;29;20044;-96
2023/07/15 08:30:23;;;;;;;3.05;2.40;;;;;;;28.98;52.15;100407.78;5376193;23;20046;-96
2023/07/15 08:32:49;;;;;;;2.15;1.70;;;;;;;29.09;50.03;100397.50;4961435;29;20025;-96
2023/07/15 08:35:16;;;;;;;6.27;2.13;;;;;;;28.52;48.49;100401.03;4961466;28;20044;-96
2023/07/15 08:37:44;;;;;;;4.75;1.98;;;;;;;28.10;49.04;100371.03;4946372;29;20027;-96
2023/07/15 08:40:11;;;;;;;2.28;2.00;;;;;;;27.72;50.01;100383.47;4962276;29;20034;-95
2023/07/15 08:42:38;;;;;;;6.88;1.88;;;;;;;27.83;50.70;100417.31;4961407;29;20087;-96
2023/07/15 08:45:07;;;;;;;3.13;2.15;;;;;;;27.54;49.91;100403.44;4962118;29;20023;-96
2023/07/15 08:47:45;;;;;;;3.70;2.10;;;;;;;27.72;50.84;100419.25;5025158;23;20079;-96
2023/07/15 08:58:00;;;;;;;8.27;2.03;;;;;;;26.94;52.46;100410.88;4958059;29;20055;-96
2023/07/15 09:00:26;;;;;;;3.35;2.30;;;;;;;26.58;52.73;100405.03;4947528;29;20032;-96
2023/07/15 09:02:52;;;;;;;3.67;2.00;;;;;;;26.63;51.91;100436.84;4958165;29;20028;-96
2023/07/15 09:05:18;;;;;;;4.00;2.17;;;;;;;26.48;51.24;100436.72;4958840;29;20419;-96
2023/07/15 09:07:45;;;;;;;2.20;2.00;;;;;;;26.62;51.71;100452.56;4957111;29;20024;-96
2023/07/15 09:10:14;;;;;;;3.97;2.10;;;;;;;26.44;52.07;100457.84;4956818;29;20035;-96
2023/07/15 09:12:44;;;;;;;5.30;2.27;;;;;;;25.89;52.89;100450.13;4954358;29;20055;-96
2023/07/15 09:15:12;;;;;;;4.63;2.30;;;;;;;25.78;53.46;100474.66;4959087;29;20252;-96
2023/07/15 09:17:37;;;;;;;2.45;2.10;;;;;;;25.42;55.25;100430.25;4959835;29;20012;-96
2023/07/15 09:22:40;;;;;;;6.78;2.45;;;;;;;25.22;55.50;100420.16;4955568;29;20048;-96
2023/07/15 09:25:10;;;;;;;3.63;2.20;;;;;;;25.68;55.26;100438.47;4961070;29;20016;-96
2023/07/15 09:27:46;;;;;;;4.17;2.03;;;;;;;26.21;54.85;100441.50;4958640;29;20034;-96
2023/07/15 09:30:11;;;;;;;6.73;2.10;;;;;;;26.42;52.10;100436.25;4957424;29;20303;-95
2023/07/15 09:32:39;;;;;;;5.53;2.05;;;;;;;26.71;52.20;100419.28;4957902;29;20473;-96
2023/07/15 09:35:06;;;;;;;8.80;2.30;;;;;;;26.96;50.84;100408.53;4956635;29;20059;-96
2023/07/15 09:37:32;;;;;;;6.78;2.00;;;;;;;27.34;50.11;100444.94;4950833;29;20055;-96
2023/07/15 09:40:07;;;;;;;3.22;2.13;;;;;;;27.21;50.67;100424.41;4949961;29;20031;-96
2023/07/15 09:42:51;;;;;;;4.72;2.20;;;;;;;27.46;50.63;100468.63;4959472;29;20027;-96
2023/07/15 09:45:37;;;;;;;4.07;2.00;;;;;;;27.27;50.67;100469.63;4955059;29;20039;-96
2023/07/15 09:48:11;;;;;;;4.40;1.90;;;;;;;27.18;51.36;100474.69;4960423;29;20038;-96
2023/07/15 09:50:39;;;;;;;4.60;2.37;;;;;;;27.01;51.05;100452.16;4961197;29;20371;-96
2023/07/15 09:53:08;;;;;;;2.75;1.73;;;;;;;26.67;50.97;100440.44;4958464;29;20075;-96
2023/07/15 09:55:36;;;;;;;3.83;1.58;;;;;;;26.21;52.45;100452.50;4958319;29;20091;-96
2023/07/15 09:58:20;;;;;;;3.33;2.35;;;;;;;26.22;53.44;100490.56;4958760;29;20015;-95
2023/07/15 10:00:57;;;;;;;5.03;1.90;;;;;;;25.82;55.87;100484.53;4960699;29;20019;-96
2023/07/15 10:03:34;;;;;;;3.33;1.90;;;;;;;25.19;57.11;100473.00;4959706;29;20032;-96
2023/07/15 10:06:00;;;;;;;4.57;2.05;;;;;;;25.10;59.27;100483.41;4959727;29;20028;-96
2023/07/15 10:08:29;;;;;;;7.22;2.10;;;;;;;24.90;61.72;100477.19;4954730;29;20059;-95
2023/07/15 10:10:54;;;;;;;5.40;1.90;;;;;;;24.72;66.37;100465.91;4955242;29;20012;-96
2023/07/15 10:13:24;;;;;;;4.57;2.00;;;;;;;24.18;71.95;100458.22;4959332;29;20028;-96
2023/07/15 11:30:49;;;;;;;5.55;2.17;;;;;;;26.79;54.40;100429.16;5616037;23;20018;-96
2023/07/15 12:56:13;;;;;;;4.45;2.38;;;;;;;30.18;46.92;100403.50;5487964;23;20039;-96
2023/07/15 13:01:48;;;;;;;3.23;2.47;;;;;;;29.40;47.26;100370.28;5316140;23;20040;-96
2023/07/15 17:21:05;;;;;;;6.63;2.43;;;;;;;19.84;100.00;100377.50;5005517;23;20048;-96
2023/07/15 17:26:08;;;;;;;27.70;4.70;;;;;;;19.87;100.00;100411.41;5087369;23;20056;-96
2023/07/15 17:28:35;;;;;;;15.57;4.05;;;;;;;19.69;100.00;100403.38;5096903;23;20048;-96
2023/07/15 17:31:01;;;;;;;12.05;3.72;;;;;;;19.71;100.00;100416.63;4952250;29;20044;-94
2023/07/15 17:33:26;;;;;;;6.00;3.13;;;;;;;19.68;100.00;100435.19;4948309;29;20023;-92
2023/07/15 17:35:53;;;;;;;8.80;3.70;;;;;;;19.50;100.00;100407.31;4946497;29;20039;-93
2023/07/15 17:38:18;;;;;;;7.30;3.10;;;;;;;19.47;100.00;100445.19;4952797;29;20034;-94
2023/07/15 17:40:46;;;;;;;8.80;2.95;;;;;;;19.33;100.00;100448.16;4947759;28;20487;-94
2023/07/15 17:43:12;;;;;;;9.10;3.23;;;;;;;19.35;100.00;100437.78;4941892;28;20197;-93
2023/07/15 17:45:37;;;;;;;8.18;3.15;;;;;;;19.36;100.00;100445.59;4960416;29;20023;-94
2023/07/15 17:48:03;;;;;;;7.47;3.20;;;;;;;19.12;100.00;100396.47;4960995;29;20016;-94
2023/07/15 17:50:29;;;;;;;6.57;2.87;;;;;;;19.34;100.00;100417.16;4959955;29;20038;-94
2023/07/15 17:52:54;;;;;;;6.35;3.15;;;;;;;19.32;100.00;100414.75;4960359;29;20012;-93
2023/07/15 17:55:19;;;;;;;8.73;3.33;;;;;;;19.56;100.00;100445.16;4960050;29;20052;-92
2023/07/15 17:57:45;;;;;;;5.40;2.88;;;;;;;19.59;100.00;100426.28;4959931;29;20059;-93
2023/07/15 18:00:11;;;;;;;8.83;3.27;;;;;;;19.56;100.00;100426.13;4945831;29;20023;-93
2023/07/15 18:02:37;;;;;;;5.67;3.20;;;;;;;19.48;100.00;100438.66;4937988;29;20468;-92
2023/07/15 18:05:02;;;;;;;11.10;3.47;;;;;;;19.48;100.00;100452.22;4944778;29;20039;-93
2023/07/15 18:07:28;;;;;;;8.80;3.42;;;;;;;19.33;100.00;100459.03;4939063;29;20034;-93
2023/07/15 18:09:53;;;;;;;8.63;3.60;;;;;;;19.34;100.00;100463.34;4935477;29;20028;-94
2023/07/15 18:12:18;;;;;;;9.57;4.10;;;;;;;19.39;100.00;100465.06;4935986;29;20027;-91
2023/07/15 18:14:44;;;;;;;11.13;4.03;;;;;;;19.35;100.00;100495.59;4936238;29;20122;-90
2023/07/15 18:17:09;;;;;;;13.20;4.47;;;;;;;19.36;100.00;100482.81;4942774;29;20031;-90
2023/07/15 18:19:35;;;;;;;16.83;4.57;;;;;;;19.21;100.00;100455.06;4936571;29;20066;-92
2023/07/15 18:22:00;;;;;;;25.40;5.27;;;;;;;19.07;100.00;100435.47;4935708;29;20388;-93
2023/07/15 18:24:26;;;;;;;28.98;5.68;;;;;;;19.10;100.00;100448.41;4936067;29;20027;-92
2023/07/15 18:26:53;;;;;;;21.20;5.73;;;;;;;18.94;100.00;100422.88;4935836;29;20067;-92
2023/07/15 18:29:19;;;;;;;15.50;5.00;;;;;;;18.78;100.00;100439.69;4936175;29;20094;-92
2023/07/15 18:31:44;;;;;;;18.80;5.15;;;;;;;18.95;100.00;100493.16;4936319;28;20032;-91
2023/07/15 18:34:09;;;;;;;19.43;5.67;;;;;;;18.83;100.00;100501.94;4934782;29;20087;-90
2023/07/15 18:36:35;;;;;;;13.30;4.73;;;;;;;18.79;100.00;100476.56;4934690;29;20028;-90
2023/07/15 18:39:00;;;;;;;14.97;4.73;;;;;;;18.79;100.00;100464.91;4934494;29;20063;-91
2023/07/15 18:41:25;;;;;;;9.15;5.03;;;;;;;19.03;100.00;100491.53;4934814;29;20059;-91